Terminal Aerodrome Forecast
Issued by NWS Shreveport, LA

Home | Current Version | Previous Version | Text Only | Print | Product List | Glossary On
Versions: 1 2 3 4 5 6 7 8 9 10 11 12 13 14 15 16 17
000
FTUS44 KSHV 031700 RRA
TAFMLU
TAF
KMLU 031741Z 0318/0418 16005KT 3SM BR OVC002
      TEMPO 0318/0321 6SM BR OVC006
     FM032100 19007KT P6SM OVC015
     FM040000 19005KT P6SM SCT025 OVC050
     FM040300 18005KT 6SM BR OVC050
     FM040600 19007KT 5SM BR OVC004
     FM041200 19006KT 4SM BR OVC004=

USA.gov is the U.S. government's official web portal to all federal, state and local government web resources and services.